sensor_id;sensor_type;location;lat;lon;timestamp;temperature;humidity
1468;DHT22;727;48.892;9.544;2024-02-28T00:02:01;8.10;99.90
1468;DHT22;727;48.892;9.544;2024-02-28T00:04:28;8.10;99.90
1468;DHT22;727;48.892;9.544;2024-02-28T00:06:54;8.10;99.90
1468;DHT22;727;48.892;9.544;2024-02-28T00:09:21;8.00;99.90
1468;DHT22;727;48.892;9.544;2024-02-28T00:11:48;8.00;99.90
1468;DHT22;727;48.892;9.544;2024-02-28T00:14:14;8.00;99.90
1468;DHT22;727;48.892;9.544;2024-02-28T00:16:43;8.00;99.90
1468;DHT22;727;48.892;9.544;2024-02-28T00:19:09;8.00;99.90
1468;DHT22;727;48.892;9.544;2024-02-28T00:21:37;8.00;99.90
1468;DHT22;727;48.892;9.544;2024-02-28T00:24:04;7.90;99.90
1468;DHT22;727;48.892;9.544;2024-02-28T00:26:31;7.80;99.90
1468;DHT22;727;48.892;9.544;2024-02-28T00:28:58;7.80;99.90
1468;DHT22;727;48.892;9.544;2024-02-28T00:31:25;7.80;99.90
1468;DHT22;727;48.892;9.544;2024-02-28T00:33:53;7.80;99.90
1468;DHT22;727;48.892;9.544;2024-02-28T00:36:19;7.80;99.90
1468;DHT22;727;48.892;9.544;2024-02-28T00:38:46;7.80;99.90
1468;DHT22;727;48.892;9.544;2024-02-28T00:41:13;7.80;99.90
1468;DHT22;727;48.892;9.544;2024-02-28T00:43:39;7.80;99.90
1468;DHT22;727;48.892;9.544;2024-02-28T00:46:06;7.80;99.90
1468;DHT22;727;48.892;9.544;2024-02-28T00:48:36;7.80;99.90
1468;DHT22;727;48.892;9.544;2024-02-28T00:51:04;7.90;99.90
1468;DHT22;727;48.892;9.544;2024-02-28T00:53:31;7.90;99.90
1468;DHT22;727;48.892;9.544;2024-02-28T00:55:58;8.00;99.90
1468;DHT22;727;48.892;9.544;2024-02-28T00:58:24;7.90;99.90
1468;DHT22;727;48.892;9.544;2024-02-28T01:00:53;7.80;99.90
1468;DHT22;727;48.892;9.544;2024-02-28T01:03:20;7.80;99.90
1468;DHT22;727;48.892;9.544;2024-02-28T01:05:48;7.80;99.90
1468;DHT22;727;48.892;9.544;2024-02-28T01:08:17;7.70;99.90
1468;DHT22;727;48.892;9.544;2024-02-28T01:10:43;7.70;99.90
1468;DHT22;727;48.892;9.544;2024-02-28T01:13:10;7.70;99.90
1468;DHT22;727;48.892;9.544;2024-02-28T01:15:39;7.70;99.90
1468;DHT22;727;48.892;9.544;2024-02-28T01:18:06;7.70;99.90
1468;DHT22;727;48.892;9.544;2024-02-28T01:20:32;7.70;99.90
1468;DHT22;727;48.892;9.544;2024-02-28T01:22:59;7.70;99.90
1468;DHT22;727;48.892;9.544;2024-02-28T01:25:27;7.60;99.90
1468;DHT22;727;48.892;9.544;2024-02-28T01:27:53;7.60;99.90
1468;DHT22;727;48.892;9.544;2024-02-28T01:30:20;7.60;99.90
1468;DHT22;727;48.892;9.544;2024-02-28T01:32:47;7.60;99.90
1468;DHT22;727;48.892;9.544;2024-02-28T01:35:14;7.60;99.90
1468;DHT22;727;48.892;9.544;2024-02-28T01:37:40;7.60;99.90
1468;DHT22;727;48.892;9.544;2024-02-28T01:40:08;7.50;99.90
1468;DHT22;727;48.892;9.544;2024-02-28T01:42:37;7.50;99.90
1468;DHT22;727;48.892;9.544;2024-02-28T01:45:04;7.60;99.90
1468;DHT22;727;48.892;9.544;2024-02-28T01:47:31;7.50;99.90
1468;DHT22;727;48.892;9.544;2024-02-28T01:49:58;7.50;99.90
1468;DHT22;727;48.892;9.544;2024-02-28T01:52:25;7.60;99.90
1468;DHT22;727;48.892;9.544;2024-02-28T01:54:51;7.60;99.90
1468;DHT22;727;48.892;9.544;2024-02-28T01:57:18;7.60;99.90
1468;DHT22;727;48.892;9.544;2024-02-28T01:59:46;7.60;99.90
1468;DHT22;727;48.892;9.544;2024-02-28T02:02:13;7.70;99.90
1468;DHT22;727;48.892;9.544;2024-02-28T02:04:40;7.70;99.90
1468;DHT22;727;48.892;9.544;2024-02-28T02:07:07;7.60;99.90
1468;DHT22;727;48.892;9.544;2024-02-28T02:09:34;7.60;99.90
1468;DHT22;727;48.892;9.544;2024-02-28T02:12:01;7.60;99.90
1468;DHT22;727;48.892;9.544;2024-02-28T02:14:28;7.60;99.90
1468;DHT22;727;48.892;9.544;2024-02-28T02:16:55;7.70;99.90
1468;DHT22;727;48.892;9.544;2024-02-28T02:19:22;7.60;99.90
1468;DHT22;727;48.892;9.544;2024-02-28T02:21:50;7.60;99.90
1468;DHT22;727;48.892;9.544;2024-02-28T02:24:20;7.60;99.90
1468;DHT22;727;48.892;9.544;2024-02-28T02:26:46;7.60;99.90
1468;DHT22;727;48.892;9.544;2024-02-28T02:29:13;7.60;99.90
1468;DHT22;727;48.892;9.544;2024-02-28T02:31:39;7.60;99.90
1468;DHT22;727;48.892;9.544;2024-02-28T02:34:06;7.60;99.90
1468;DHT22;727;48.892;9.544;2024-02-28T02:36:33;7.70;99.90
1468;DHT22;727;48.892;9.544;2024-02-28T02:39:00;7.60;99.90
1468;DHT22;727;48.892;9.544;2024-02-28T02:41:28;7.50;99.90
1468;DHT22;727;48.892;9.544;2024-02-28T02:43:54;7.50;99.90
1468;DHT22;727;48.892;9.544;2024-02-28T02:46:22;7.50;99.90
1468;DHT22;727;48.892;9.544;2024-02-28T02:48:48;7.50;99.90
1468;DHT22;727;48.892;9.544;2024-02-28T02:51:15;7.50;99.90
1468;DHT22;727;48.892;9.544;2024-02-28T02:53:44;7.50;99.90
1468;DHT22;727;48.892;9.544;2024-02-28T02:56:10;7.50;99.90
1468;DHT22;727;48.892;9.544;2024-02-28T02:58:38;7.50;99.90
1468;DHT22;727;48.892;9.544;2024-02-28T03:01:05;7.50;99.90
1468;DHT22;727;48.892;9.544;2024-02-28T03:03:31;7.40;99.90
1468;DHT22;727;48.892;9.544;2024-02-28T03:05:58;7.40;99.90
1468;DHT22;727;48.892;9.544;2024-02-28T03:08:25;7.40;99.90
1468;DHT22;727;48.892;9.544;2024-02-28T03:10:51;7.40;99.90
1468;DHT22;727;48.892;9.544;2024-02-28T03:13:18;7.40;99.90
1468;DHT22;727;48.892;9.544;2024-02-28T03:15:46;7.50;99.90
1468;DHT22;727;48.892;9.544;2024-02-28T03:18:13;7.50;99.90
1468;DHT22;727;48.892;9.544;2024-02-28T03:20:39;7.40;99.90
1468;DHT22;727;48.892;9.544;2024-02-28T03:23:06;7.50;99.90
1468;DHT22;727;48.892;9.544;2024-02-28T03:25:32;7.50;99.90
1468;DHT22;727;48.892;9.544;2024-02-28T03:28:00;7.40;99.90
1468;DHT22;727;48.892;9.544;2024-02-28T03:30:27;7.40;99.90
1468;DHT22;727;48.892;9.544;2024-02-28T03:32:55;7.40;99.90
1468;DHT22;727;48.892;9.544;2024-02-28T03:35:22;7.40;99.90
1468;DHT22;727;48.892;9.544;2024-02-28T03:37:48;7.30;99.90
1468;DHT22;727;48.892;9.544;2024-02-28T03:40:15;7.30;99.90
1468;DHT22;727;48.892;9.544;2024-02-28T03:42:42;7.30;99.90
1468;DHT22;727;48.892;9.544;2024-02-28T03:45:08;7.30;99.90
1468;DHT22;727;48.892;9.544;2024-02-28T03:47:35;7.30;99.90
1468;DHT22;727;48.892;9.544;2024-02-28T03:50:04;7.30;99.90
1468;DHT22;727;48.892;9.544;2024-02-28T03:52:30;7.30;99.90
1468;DHT22;727;48.892;9.544;2024-02-28T03:54:57;7.30;99.90
1468;DHT22;727;48.892;9.544;2024-02-28T03:57:24;7.30;99.90
1468;DHT22;727;48.892;9.544;2024-02-28T03:59:50;7.30;99.90
1468;DHT22;727;48.892;9.544;2024-02-28T04:02:17;7.30;99.90
1468;DHT22;727;48.892;9.544;2024-02-28T04:04:44;7.30;99.90
1468;DHT22;727;48.892;9.544;2024-02-28T04:07:12;7.30;99.90
1468;DHT22;727;48.892;9.544;2024-02-28T04:09:38;7.30;99.90
1468;DHT22;727;48.892;9.544;2024-02-28T04:12:06;7.20;99.90
1468;DHT22;727;48.892;9.544;2024-02-28T04:14:32;7.20;99.90
1468;DHT22;727;48.892;9.544;2024-02-28T04:16:59;7.20;99.90
1468;DHT22;727;48.892;9.544;2024-02-28T04:19:26;7.20;99.90
1468;DHT22;727;48.892;9.544;2024-02-28T04:21:52;7.20;99.90
1468;DHT22;727;48.892;9.544;2024-02-28T04:24:20;7.20;99.90
1468;DHT22;727;48.892;9.544;2024-02-28T04:26:47;7.20;99.90
1468;DHT22;727;48.892;9.544;2024-02-28T04:29:13;7.20;99.90
1468;DHT22;727;48.892;9.544;2024-02-28T04:31:40;7.10;99.90
1468;DHT22;727;48.892;9.544;2024-02-28T04:34:07;7.10;99.90
1468;DHT22;727;48.892;9.544;2024-02-28T04:36:34;7.10;99.90
1468;DHT22;727;48.892;9.544;2024-02-28T04:39:00;7.20;99.90
1468;DHT22;727;48.892;9.544;2024-02-28T04:41:30;7.20;99.90
1468;DHT22;727;48.892;9.544;2024-02-28T04:43:57;7.10;99.90
1468;DHT22;727;48.892;9.544;2024-02-28T04:46:24;7.10;99.90
1468;DHT22;727;48.892;9.544;2024-02-28T04:48:50;7.20;99.90
1468;DHT22;727;48.892;9.544;2024-02-28T04:51:17;7.20;99.90
1468;DHT22;727;48.892;9.544;2024-02-28T04:53:44;7.20;99.90
1468;DHT22;727;48.892;9.544;2024-02-28T04:56:10;7.10;99.90
1468;DHT22;727;48.892;9.544;2024-02-28T04:58:38;7.10;99.90
1468;DHT22;727;48.892;9.544;2024-02-28T05:01:05;7.10;99.90
1468;DHT22;727;48.892;9.544;2024-02-28T05:03:32;7.20;99.90
1468;DHT22;727;48.892;9.544;2024-02-28T05:05:58;7.10;99.90
1468;DHT22;727;48.892;9.544;2024-02-28T05:08:25;7.00;99.90
1468;DHT22;727;48.892;9.544;2024-02-28T05:10:52;7.00;99.90
1468;DHT22;727;48.892;9.544;2024-02-28T05:13:19;7.10;99.90
1468;DHT22;727;48.892;9.544;2024-02-28T05:15:48;7.00;99.90
1468;DHT22;727;48.892;9.544;2024-02-28T05:18:16;7.00;99.90
1468;DHT22;727;48.892;9.544;2024-02-28T05:20:43;7.00;99.90
1468;DHT22;727;48.892;9.544;2024-02-28T05:23:09;7.00;99.90
1468;DHT22;727;48.892;9.544;2024-02-28T05:25:36;7.00;99.90
1468;DHT22;727;48.892;9.544;2024-02-28T05:28:03;7.00;99.90
1468;DHT22;727;48.892;9.544;2024-02-28T05:30:30;7.00;99.90
1468;DHT22;727;48.892;9.544;2024-02-28T05:32:58;7.00;99.90
1468;DHT22;727;48.892;9.544;2024-02-28T05:35:24;7.00;99.90
1468;DHT22;727;48.892;9.544;2024-02-28T05:37:53;7.00;99.90
1468;DHT22;727;48.892;9.544;2024-02-28T05:40:20;7.00;99.90
1468;DHT22;727;48.892;9.544;2024-02-28T05:42:47;7.00;99.90
1468;DHT22;727;48.892;9.544;2024-02-28T05:45:14;7.00;99.90
1468;DHT22;727;48.892;9.544;2024-02-28T05:47:40;7.00;99.90
1468;DHT22;727;48.892;9.544;2024-02-28T05:50:09;7.00;99.90
1468;DHT22;727;48.892;9.544;2024-02-28T05:52:36;7.10;99.90
1468;DHT22;727;48.892;9.544;2024-02-28T05:55:03;7.10;99.90
1468;DHT22;727;48.892;9.544;2024-02-28T05:57:30;7.10;99.90
1468;DHT22;727;48.892;9.544;2024-02-28T05:59:57;7.10;99.90
1468;DHT22;727;48.892;9.544;2024-02-28T06:02:24;7.10;99.90
1468;DHT22;727;48.892;9.544;2024-02-28T06:04:50;7.10;99.90
1468;DHT22;727;48.892;9.544;2024-02-28T06:07:19;7.10;99.90
1468;DHT22;727;48.892;9.544;2024-02-28T06:09:46;7.10;99.90
1468;DHT22;727;48.892;9.544;2024-02-28T06:12:12;7.10;99.90
1468;DHT22;727;48.892;9.544;2024-02-28T06:14:39;7.10;99.90
1468;DHT22;727;48.892;9.544;2024-02-28T06:17:06;7.10;99.90
1468;DHT22;727;48.892;9.544;2024-02-28T06:19:32;7.10;99.90
1468;DHT22;727;48.892;9.544;2024-02-28T06:21:59;7.20;99.90
1468;DHT22;727;48.892;9.544;2024-02-28T06:24:27;7.20;99.90
1468;DHT22;727;48.892;9.544;2024-02-28T06:26:53;7.10;99.90
1468;DHT22;727;48.892;9.544;2024-02-28T06:29:20;7.10;99.90
1468;DHT22;727;48.892;9.544;2024-02-28T06:31:50;7.10;99.90
1468;DHT22;727;48.892;9.544;2024-02-28T06:34:17;7.20;99.90
1468;DHT22;727;48.892;9.544;2024-02-28T06:36:43;7.10;99.90
1468;DHT22;727;48.892;9.544;2024-02-28T06:39:10;7.10;99.90
1468;DHT22;727;48.892;9.544;2024-02-28T06:41:38;7.10;99.90
1468;DHT22;727;48.892;9.544;2024-02-28T06:44:05;7.10;99.90
1468;DHT22;727;48.892;9.544;2024-02-28T06:46:33;7.20;99.90
1468;DHT22;727;48.892;9.544;2024-02-28T06:48:59;7.10;99.90
1468;DHT22;727;48.892;9.544;2024-02-28T06:51:26;7.20;99.90
1468;DHT22;727;48.892;9.544;2024-02-28T06:53:53;7.10;99.90
1468;DHT22;727;48.892;9.544;2024-02-28T06:56:19;7.20;99.90
1468;DHT22;727;48.892;9.544;2024-02-28T06:58:47;7.20;99.90
1468;DHT22;727;48.892;9.544;2024-02-28T07:01:14;7.20;99.90
1468;DHT22;727;48.892;9.544;2024-02-28T07:03:40;7.30;99.90
1468;DHT22;727;48.892;9.544;2024-02-28T07:06:08;7.20;99.90
1468;DHT22;727;48.892;9.544;2024-02-28T07:08:34;7.30;99.90
1468;DHT22;727;48.892;9.544;2024-02-28T07:11:01;7.20;99.90
1468;DHT22;727;48.892;9.544;2024-02-28T07:13:31;7.30;99.90
1468;DHT22;727;48.892;9.544;2024-02-28T07:15:59;7.30;99.90
1468;DHT22;727;48.892;9.544;2024-02-28T07:18:28;7.30;99.90
1468;DHT22;727;48.892;9.544;2024-02-28T07:20:58;7.30;99.90
1468;DHT22;727;48.892;9.544;2024-02-28T07:23:27;7.40;99.90
1468;DHT22;727;48.892;9.544;2024-02-28T07:25:54;7.40;99.90
1468;DHT22;727;48.892;9.544;2024-02-28T07:28:23;7.40;99.90
1468;DHT22;727;48.892;9.544;2024-02-28T07:30:49;7.40;99.90
1468;DHT22;727;48.892;9.544;2024-02-28T07:33:17;7.50;99.90
1468;DHT22;727;48.892;9.544;2024-02-28T07:35:44;7.40;99.90
1468;DHT22;727;48.892;9.544;2024-02-28T07:38:11;7.40;99.90
1468;DHT22;727;48.892;9.544;2024-02-28T07:40:38;7.40;99.90
1468;DHT22;727;48.892;9.544;2024-02-28T07:43:04;7.50;99.90
1468;DHT22;727;48.892;9.544;2024-02-28T07:45:31;7.50;99.90
1468;DHT22;727;48.892;9.544;2024-02-28T07:47:58;7.40;99.90
1468;DHT22;727;48.892;9.544;2024-02-28T07:50:26;7.50;99.90
1468;DHT22;727;48.892;9.544;2024-02-28T07:52:54;7.50;99.90
1468;DHT22;727;48.892;9.544;2024-02-28T07:55:20;7.50;99.90
1468;DHT22;727;48.892;9.544;2024-02-28T07:57:50;7.50;99.90
1468;DHT22;727;48.892;9.544;2024-02-28T08:00:16;7.50;99.90
1468;DHT22;727;48.892;9.544;2024-02-28T08:02:44;7.50;99.90
1468;DHT22;727;48.892;9.544;2024-02-28T08:05:11;7.50;99.90
1468;DHT22;727;48.892;9.544;2024-02-28T08:07:39;7.40;99.90
1468;DHT22;727;48.892;9.544;2024-02-28T08:10:06;7.30;99.90
1468;DHT22;727;48.892;9.544;2024-02-28T08:12:35;7.20;99.90
1468;DHT22;727;48.892;9.544;2024-02-28T08:15:02;7.20;99.90
1468;DHT22;727;48.892;9.544;2024-02-28T08:17:28;7.20;99.90
1468;DHT22;727;48.892;9.544;2024-02-28T08:19:55;7.30;99.90
1468;DHT22;727;48.892;9.544;2024-02-28T08:22:22;7.20;99.90
1468;DHT22;727;48.892;9.544;2024-02-28T08:24:52;7.20;99.90
1468;DHT22;727;48.892;9.544;2024-02-28T08:27:19;7.20;99.90
1468;DHT22;727;48.892;9.544;2024-02-28T08:29:46;7.30;99.90
1468;DHT22;727;48.892;9.544;2024-02-28T08:32:13;7.40;99.90
1468;DHT22;727;48.892;9.544;2024-02-28T08:34:43;7.40;99.90
1468;DHT22;727;48.892;9.544;2024-02-28T08:37:11;7.40;99.90
1468;DHT22;727;48.892;9.544;2024-02-28T08:39:38;7.40;99.90
1468;DHT22;727;48.892;9.544;2024-02-28T08:42:06;7.40;99.90
1468;DHT22;727;48.892;9.544;2024-02-28T08:44:32;7.40;99.90
1468;DHT22;727;48.892;9.544;2024-02-28T08:46:59;7.20;99.90
1468;DHT22;727;48.892;9.544;2024-02-28T08:49:26;7.20;99.90
1468;DHT22;727;48.892;9.544;2024-02-28T08:51:52;7.30;99.90
1468;DHT22;727;48.892;9.544;2024-02-28T08:54:19;7.30;99.90
1468;DHT22;727;48.892;9.544;2024-02-28T08:56:46;7.30;99.90
1468;DHT22;727;48.892;9.544;2024-02-28T08:59:15;7.30;99.90
1468;DHT22;727;48.892;9.544;2024-02-28T09:01:41;7.20;99.90
1468;DHT22;727;48.892;9.544;2024-02-28T09:04:08;7.20;99.90
1468;DHT22;727;48.892;9.544;2024-02-28T09:06:35;7.20;99.90
1468;DHT22;727;48.892;9.544;2024-02-28T09:09:02;7.30;99.90
1468;DHT22;727;48.892;9.544;2024-02-28T09:11:29;7.30;99.90
1468;DHT22;727;48.892;9.544;2024-02-28T09:13:55;7.40;99.90
1468;DHT22;727;48.892;9.544;2024-02-28T09:16:23;7.40;99.90
1468;DHT22;727;48.892;9.544;2024-02-28T09:18:50;7.40;99.90
1468;DHT22;727;48.892;9.544;2024-02-28T09:21:17;7.60;99.90
1468;DHT22;727;48.892;9.544;2024-02-28T09:23:43;7.60;99.90
1468;DHT22;727;48.892;9.544;2024-02-28T09:26:10;7.60;99.90
1468;DHT22;727;48.892;9.544;2024-02-28T09:28:36;7.70;99.90
1468;DHT22;727;48.892;9.544;2024-02-28T09:31:03;7.80;99.90
1468;DHT22;727;48.892;9.544;2024-02-28T09:33:31;7.90;99.90
1468;DHT22;727;48.892;9.544;2024-02-28T09:35:58;7.90;99.90
1468;DHT22;727;48.892;9.544;2024-02-28T09:38:24;7.90;99.90
1468;DHT22;727;48.892;9.544;2024-02-28T09:40:51;8.00;99.90
1468;DHT22;727;48.892;9.544;2024-02-28T09:43:24;7.90;99.90
1468;DHT22;727;48.892;9.544;2024-02-28T09:45:56;7.90;99.90
1468;DHT22;727;48.892;9.544;2024-02-28T09:48:25;7.90;99.90
1468;DHT22;727;48.892;9.544;2024-02-28T09:50:55;7.90;99.90
1468;DHT22;727;48.892;9.544;2024-02-28T09:53:22;7.90;99.90
1468;DHT22;727;48.892;9.544;2024-02-28T09:55:50;7.90;99.90
1468;DHT22;727;48.892;9.544;2024-02-28T09:58:18;7.90;99.90
1468;DHT22;727;48.892;9.544;2024-02-28T10:00:46;7.90;99.90
1468;DHT22;727;48.892;9.544;2024-02-28T10:03:17;8.00;99.90
1468;DHT22;727;48.892;9.544;2024-02-28T10:05:45;8.00;99.90
1468;DHT22;727;48.892;9.544;2024-02-28T10:08:12;8.10;99.90
1468;DHT22;727;48.892;9.544;2024-02-28T10:10:45;8.20;99.90
1468;DHT22;727;48.892;9.544;2024-02-28T10:13:11;8.20;99.90
1468;DHT22;727;48.892;9.544;2024-02-28T10:15:38;8.20;99.90
1468;DHT22;727;48.892;9.544;2024-02-28T10:18:05;8.30;99.90
1468;DHT22;727;48.892;9.544;2024-02-28T10:20:32;8.40;99.90
1468;DHT22;727;48.892;9.544;2024-02-28T10:22:58;8.40;99.90
1468;DHT22;727;48.892;9.544;2024-02-28T10:25:26;8.30;99.90
1468;DHT22;727;48.892;9.544;2024-02-28T10:27:59;8.40;99.90
1468;DHT22;727;48.892;9.544;2024-02-28T10:30:26;8.40;99.90
1468;DHT22;727;48.892;9.544;2024-02-28T10:32:52;8.50;99.90
1468;DHT22;727;48.892;9.544;2024-02-28T10:35:19;8.50;99.90
1468;DHT22;727;48.892;9.544;2024-02-28T10:37:51;8.60;99.90
1468;DHT22;727;48.892;9.544;2024-02-28T10:40:18;8.80;99.90
1468;DHT22;727;48.892;9.544;2024-02-28T10:42:48;8.90;99.90
1468;DHT22;727;48.892;9.544;2024-02-28T10:45:16;9.00;99.90
1468;DHT22;727;48.892;9.544;2024-02-28T10:47:44;9.00;99.90
1468;DHT22;727;48.892;9.544;2024-02-28T10:50:12;9.00;99.90
1468;DHT22;727;48.892;9.544;2024-02-28T10:52:44;9.00;99.90
1468;DHT22;727;48.892;9.544;2024-02-28T10:55:13;9.00;99.90
1468;DHT22;727;48.892;9.544;2024-02-28T10:57:42;9.00;99.90
1468;DHT22;727;48.892;9.544;2024-02-28T11:00:15;9.00;99.90
1468;DHT22;727;48.892;9.544;2024-02-28T11:02:43;9.10;99.90
1468;DHT22;727;48.892;9.544;2024-02-28T11:05:10;9.10;99.90
1468;DHT22;727;48.892;9.544;2024-02-28T11:07:40;9.10;99.90
1468;DHT22;727;48.892;9.544;2024-02-28T11:10:08;9.10;99.90
1468;DHT22;727;48.892;9.544;2024-02-28T11:12:35;9.00;99.90
1468;DHT22;727;48.892;9.544;2024-02-28T11:15:04;9.00;99.90
1468;DHT22;727;48.892;9.544;2024-02-28T11:17:33;9.10;99.90
1468;DHT22;727;48.892;9.544;2024-02-28T11:19:59;9.00;99.90
1468;DHT22;727;48.892;9.544;2024-02-28T11:22:27;9.10;99.90
1468;DHT22;727;48.892;9.544;2024-02-28T11:24:55;9.20;99.90
1468;DHT22;727;48.892;9.544;2024-02-28T11:27:22;9.10;99.90
1468;DHT22;727;48.892;9.544;2024-02-28T11:29:49;9.30;99.90
1468;DHT22;727;48.892;9.544;2024-02-28T11:32:16;9.40;99.90
1468;DHT22;727;48.892;9.544;2024-02-28T11:34:44;9.50;99.90
1468;DHT22;727;48.892;9.544;2024-02-28T11:37:10;9.50;99.90
1468;DHT22;727;48.892;9.544;2024-02-28T11:39:37;9.50;99.90
1468;DHT22;727;48.892;9.544;2024-02-28T11:42:11;9.50;99.90
1468;DHT22;727;48.892;9.544;2024-02-28T11:44:39;9.50;99.90
1468;DHT22;727;48.892;9.544;2024-02-28T11:47:08;9.50;99.90
1468;DHT22;727;48.892;9.544;2024-02-28T11:49:35;9.40;99.90
1468;DHT22;727;48.892;9.544;2024-02-28T11:52:04;9.40;99.90
1468;DHT22;727;48.892;9.544;2024-02-28T11:54:31;9.40;99.90
1468;DHT22;727;48.892;9.544;2024-02-28T11:56:58;9.40;99.90
1468;DHT22;727;48.892;9.544;2024-02-28T11:59:24;9.40;99.90
1468;DHT22;727;48.892;9.544;2024-02-28T12:01:51;9.40;99.90
1468;DHT22;727;48.892;9.544;2024-02-28T12:04:18;9.30;99.90
1468;DHT22;727;48.892;9.544;2024-02-28T12:06:45;9.30;99.90
1468;DHT22;727;48.892;9.544;2024-02-28T12:09:13;9.20;99.90
1468;DHT22;727;48.892;9.544;2024-02-28T12:11:40;9.30;99.90
1468;DHT22;727;48.892;9.544;2024-02-28T12:14:08;9.40;99.90
1468;DHT22;727;48.892;9.544;2024-02-28T12:16:36;9.40;99.90
1468;DHT22;727;48.892;9.544;2024-02-28T12:19:06;9.40;99.90
1468;DHT22;727;48.892;9.544;2024-02-28T12:21:33;9.50;99.90
1468;DHT22;727;48.892;9.544;2024-02-28T12:24:00;9.50;99.90
1468;DHT22;727;48.892;9.544;2024-02-28T12:26:28;9.60;99.90
1468;DHT22;727;48.892;9.544;2024-02-28T12:28:55;9.40;99.90
1468;DHT22;727;48.892;9.544;2024-02-28T12:31:21;9.40;99.90
1468;DHT22;727;48.892;9.544;2024-02-28T12:33:48;9.30;99.90
1468;DHT22;727;48.892;9.544;2024-02-28T12:36:15;9.30;99.90
1468;DHT22;727;48.892;9.544;2024-02-28T12:38:41;9.30;99.90
1468;DHT22;727;48.892;9.544;2024-02-28T12:41:08;9.50;99.90
1468;DHT22;727;48.892;9.544;2024-02-28T12:43:36;9.50;99.90
1468;DHT22;727;48.892;9.544;2024-02-28T12:46:03;9.60;99.90
1468;DHT22;727;48.892;9.544;2024-02-28T12:48:30;9.50;99.90
1468;DHT22;727;48.892;9.544;2024-02-28T12:50:57;9.50;99.90
1468;DHT22;727;48.892;9.544;2024-02-28T12:53:24;9.50;99.90
1468;DHT22;727;48.892;9.544;2024-02-28T12:55:51;9.50;99.90
1468;DHT22;727;48.892;9.544;2024-02-28T12:58:18;9.40;99.90
1468;DHT22;727;48.892;9.544;2024-02-28T13:00:46;9.50;99.90
1468;DHT22;727;48.892;9.544;2024-02-28T13:03:13;9.50;99.90
1468;DHT22;727;48.892;9.544;2024-02-28T13:05:40;9.50;99.90
1468;DHT22;727;48.892;9.544;2024-02-28T13:08:07;9.60;99.90
1468;DHT22;727;48.892;9.544;2024-02-28T13:10:34;9.60;99.90
1468;DHT22;727;48.892;9.544;2024-02-28T13:13:01;9.60;99.90
1468;DHT22;727;48.892;9.544;2024-02-28T13:15:28;9.60;99.90
1468;DHT22;727;48.892;9.544;2024-02-28T13:17:56;9.60;99.90
1468;DHT22;727;48.892;9.544;2024-02-28T13:20:23;9.50;99.90
1468;DHT22;727;48.892;9.544;2024-02-28T13:22:50;9.40;99.90
1468;DHT22;727;48.892;9.544;2024-02-28T13:25:17;9.40;99.90
1468;DHT22;727;48.892;9.544;2024-02-28T13:27:45;9.40;99.90
1468;DHT22;727;48.892;9.544;2024-02-28T13:30:12;9.40;99.90
1468;DHT22;727;48.892;9.544;2024-02-28T13:32:39;9.40;99.90
1468;DHT22;727;48.892;9.544;2024-02-28T13:35:08;9.30;99.90
1468;DHT22;727;48.892;9.544;2024-02-28T13:37:35;9.20;99.90
1468;DHT22;727;48.892;9.544;2024-02-28T13:40:06;9.20;99.90
1468;DHT22;727;48.892;9.544;2024-02-28T13:42:33;9.20;99.90
1468;DHT22;727;48.892;9.544;2024-02-28T13:45:00;9.30;99.90
1468;DHT22;727;48.892;9.544;2024-02-28T13:47:27;9.30;99.90
1468;DHT22;727;48.892;9.544;2024-02-28T13:49:53;9.40;99.90
1468;DHT22;727;48.892;9.544;2024-02-28T13:52:21;9.40;99.90
1468;DHT22;727;48.892;9.544;2024-02-28T13:54:48;9.40;99.90
1468;DHT22;727;48.892;9.544;2024-02-28T13:57:16;9.40;99.90
1468;DHT22;727;48.892;9.544;2024-02-28T13:59:43;9.50;99.90
1468;DHT22;727;48.892;9.544;2024-02-28T14:02:14;9.40;99.90
1468;DHT22;727;48.892;9.544;2024-02-28T14:04:41;9.30;99.90
1468;DHT22;727;48.892;9.544;2024-02-28T14:07:08;9.30;99.90
1468;DHT22;727;48.892;9.544;2024-02-28T14:09:36;9.20;99.90
1468;DHT22;727;48.892;9.544;2024-02-28T14:12:03;9.10;99.90
1468;DHT22;727;48.892;9.544;2024-02-28T14:14:30;9.10;99.90
1468;DHT22;727;48.892;9.544;2024-02-28T14:16:56;9.10;99.90
1468;DHT22;727;48.892;9.544;2024-02-28T14:19:23;9.20;99.90
1468;DHT22;727;48.892;9.544;2024-02-28T14:21:50;9.30;99.90
1468;DHT22;727;48.892;9.544;2024-02-28T14:24:16;9.30;99.90
1468;DHT22;727;48.892;9.544;2024-02-28T14:26:46;9.30;99.90
1468;DHT22;727;48.892;9.544;2024-02-28T14:29:13;9.30;99.90
1468;DHT22;727;48.892;9.544;2024-02-28T14:31:40;9.30;99.90
1468;DHT22;727;48.892;9.544;2024-02-28T14:34:07;9.30;99.90
1468;DHT22;727;48.892;9.544;2024-02-28T14:36:34;9.20;99.90
1468;DHT22;727;48.892;9.544;2024-02-28T14:39:01;9.20;99.90
1468;DHT22;727;48.892;9.544;2024-02-28T14:41:28;9.10;99.90
1468;DHT22;727;48.892;9.544;2024-02-28T14:43:58;9.00;99.90
1468;DHT22;727;48.892;9.544;2024-02-28T14:46:25;9.10;99.90
1468;DHT22;727;48.892;9.544;2024-02-28T14:48:51;9.20;99.90
1468;DHT22;727;48.892;9.544;2024-02-28T14:51:18;9.20;99.90
1468;DHT22;727;48.892;9.544;2024-02-28T14:53:45;9.20;99.90
1468;DHT22;727;48.892;9.544;2024-02-28T14:56:13;9.20;99.90
1468;DHT22;727;48.892;9.544;2024-02-28T14:58:39;9.10;99.90
1468;DHT22;727;48.892;9.544;2024-02-28T15:01:07;9.00;99.90
1468;DHT22;727;48.892;9.544;2024-02-28T15:03:35;9.10;99.90
1468;DHT22;727;48.892;9.544;2024-02-28T15:06:02;9.10;99.90
1468;DHT22;727;48.892;9.544;2024-02-28T15:08:29;9.10;99.90
1468;DHT22;727;48.892;9.544;2024-02-28T15:10:56;9.10;99.90
1468;DHT22;727;48.892;9.544;2024-02-28T15:13:23;9.10;99.90
1468;DHT22;727;48.892;9.544;2024-02-28T15:15:49;9.00;99.90
1468;DHT22;727;48.892;9.544;2024-02-28T15:18:17;9.00;99.90
1468;DHT22;727;48.892;9.544;2024-02-28T15:20:45;9.10;99.90
1468;DHT22;727;48.892;9.544;2024-02-28T15:23:11;9.00;99.90
1468;DHT22;727;48.892;9.544;2024-02-28T15:25:38;9.00;99.90
1468;DHT22;727;48.892;9.544;2024-02-28T15:28:05;8.90;99.90
1468;DHT22;727;48.892;9.544;2024-02-28T15:30:32;8.90;99.90
1468;DHT22;727;48.892;9.544;2024-02-28T15:32:58;8.90;99.90
1468;DHT22;727;48.892;9.544;2024-02-28T15:35:26;8.90;99.90
1468;DHT22;727;48.892;9.544;2024-02-28T15:37:53;8.90;99.90
1468;DHT22;727;48.892;9.544;2024-02-28T15:40:20;8.80;99.90
1468;DHT22;727;48.892;9.544;2024-02-28T15:42:48;8.90;99.90
1468;DHT22;727;48.892;9.544;2024-02-28T15:45:15;8.90;99.90
1468;DHT22;727;48.892;9.544;2024-02-28T15:47:43;8.80;99.90
1468;DHT22;727;48.892;9.544;2024-02-28T15:50:11;8.80;99.90
1468;DHT22;727;48.892;9.544;2024-02-28T15:52:39;8.80;99.90
1468;DHT22;727;48.892;9.544;2024-02-28T15:55:06;8.80;99.90
1468;DHT22;727;48.892;9.544;2024-02-28T15:57:32;8.80;99.90
1468;DHT22;727;48.892;9.544;2024-02-28T15:59:59;8.80;99.90
1468;DHT22;727;48.892;9.544;2024-02-28T16:02:26;8.70;99.90
1468;DHT22;727;48.892;9.544;2024-02-28T16:04:52;8.70;99.90
1468;DHT22;727;48.892;9.544;2024-02-28T16:07:19;8.70;99.90
1468;DHT22;727;48.892;9.544;2024-02-28T16:09:47;8.70;99.90
1468;DHT22;727;48.892;9.544;2024-02-28T16:12:15;8.60;99.90
1468;DHT22;727;48.892;9.544;2024-02-28T16:14:42;8.60;99.90
1468;DHT22;727;48.892;9.544;2024-02-28T16:17:09;8.60;99.90
1468;DHT22;727;48.892;9.544;2024-02-28T16:19:40;8.60;99.90
1468;DHT22;727;48.892;9.544;2024-02-28T16:22:07;8.50;99.90
1468;DHT22;727;48.892;9.544;2024-02-28T16:24:34;8.50;99.90
1468;DHT22;727;48.892;9.544;2024-02-28T16:27:03;8.50;99.90
1468;DHT22;727;48.892;9.544;2024-02-28T16:29:29;8.50;99.90
1468;DHT22;727;48.892;9.544;2024-02-28T16:31:56;8.40;99.90
1468;DHT22;727;48.892;9.544;2024-02-28T16:34:23;8.40;99.90